sensor_id;sensor_type;location;lat;lon;timestamp;pressure;altitude;pressure_sealevel;temperature;humidity
30021;BME280;16861;52.294;7.760;2023-03-03T00:01:37;100625.47;;;5.04;61.33
30021;BME280;16861;52.294;7.760;2023-03-03T00:04:03;100626.31;;;5.06;61.37
30021;BME280;16861;52.294;7.760;2023-03-03T00:06:30;100625.41;;;5.07;61.42
30021;BME280;16861;52.294;7.760;2023-03-03T00:08:56;100628.00;;;5.08;61.30
30021;BME280;16861;52.294;7.760;2023-03-03T00:11:23;100620.97;;;5.11;61.26
30021;BME280;16861;52.294;7.760;2023-03-03T00:13:52;100626.19;;;5.11;61.34
30021;BME280;16861;52.294;7.760;2023-03-03T00:16:30;100634.09;;;5.09;61.63
30021;BME280;16861;52.294;7.760;2023-03-03T00:18:57;100635.75;;;5.13;61.14
30021;BME280;16861;52.294;7.760;2023-03-03T00:21:31;100640.13;;;5.11;61.14
30021;BME280;16861;52.294;7.760;2023-03-03T00:26:35;100633.22;;;5.08;61.12
30021;BME280;16861;52.294;7.760;2023-03-03T00:29:45;100628.94;;;5.04;61.19
30021;BME280;16861;52.294;7.760;2023-03-03T00:34:42;100623.75;;;5.03;61.26
30021;BME280;16861;52.294;7.760;2023-03-03T00:37:22;100618.66;;;4.98;61.69
30021;BME280;16861;52.294;7.760;2023-03-03T00:39:51;100615.13;;;5.01;60.82
30021;BME280;16861;52.294;7.760;2023-03-03T00:42:18;100630.81;;;4.99;61.26
30021;BME280;16861;52.294;7.760;2023-03-03T00:47:50;100624.72;;;4.97;61.42
30021;BME280;16861;52.294;7.760;2023-03-03T00:50:31;100636.91;;;4.98;61.40
30021;BME280;16861;52.294;7.760;2023-03-03T00:53:04;100622.97;;;4.99;61.37
30021;BME280;16861;52.294;7.760;2023-03-03T00:55:32;100637.72;;;5.00;61.02
30021;BME280;16861;52.294;7.760;2023-03-03T00:57:59;100629.03;;;5.00;60.74
30021;BME280;16861;52.294;7.760;2023-03-03T01:00:25;100630.81;;;4.99;61.18
30021;BME280;16861;52.294;7.760;2023-03-03T01:02:52;100623.88;;;4.98;61.22
30021;BME280;16861;52.294;7.760;2023-03-03T01:05:19;100637.75;;;4.99;61.34
30021;BME280;16861;52.294;7.760;2023-03-03T01:07:46;100633.41;;;4.99;61.50
30021;BME280;16861;52.294;7.760;2023-03-03T01:10:12;100629.00;;;5.01;61.32
30021;BME280;16861;52.294;7.760;2023-03-03T01:12:39;100629.88;;;5.02;61.56
30021;BME280;16861;52.294;7.760;2023-03-03T01:15:07;100631.59;;;5.03;61.36
30021;BME280;16861;52.294;7.760;2023-03-03T01:17:35;100622.00;;;5.05;61.36
30021;BME280;16861;52.294;7.760;2023-03-03T01:20:02;100616.78;;;5.05;61.48
30021;BME280;16861;52.294;7.760;2023-03-03T01:22:29;100622.84;;;5.05;61.51
30021;BME280;16861;52.294;7.760;2023-03-03T01:24:56;100625.41;;;5.07;61.49
30021;BME280;16861;52.294;7.760;2023-03-03T01:27:25;100623.69;;;5.07;61.37
30021;BME280;16861;52.294;7.760;2023-03-03T01:29:54;100615.84;;;5.07;61.28
30021;BME280;16861;52.294;7.760;2023-03-03T01:32:23;100623.72;;;5.06;61.31
30021;BME280;16861;52.294;7.760;2023-03-03T01:34:50;100619.38;;;5.05;61.57
30021;BME280;16861;52.294;7.760;2023-03-03T01:37:16;100613.31;;;5.03;61.36
30021;BME280;16861;52.294;7.760;2023-03-03T01:39:47;100618.59;;;5.00;61.40
30021;BME280;16861;52.294;7.760;2023-03-03T01:42:14;100622.09;;;4.99;61.16
30021;BME280;16861;52.294;7.760;2023-03-03T01:44:41;100616.09;;;4.95;61.36
30021;BME280;16861;52.294;7.760;2023-03-03T01:47:20;100631.84;;;4.89;62.03
30021;BME280;16861;52.294;7.760;2023-03-03T01:49:57;100630.22;;;4.85;61.67
30021;BME280;16861;52.294;7.760;2023-03-03T01:52:37;100622.44;;;4.81;61.83
30021;BME280;16861;52.294;7.760;2023-03-03T01:55:13;100620.78;;;4.77;61.97
30021;BME280;16861;52.294;7.760;2023-03-03T01:57:44;100623.44;;;4.74;61.79
30021;BME280;16861;52.294;7.760;2023-03-03T02:00:13;100623.47;;;4.73;61.87
30021;BME280;16861;52.294;7.760;2023-03-03T02:02:40;100620.88;;;4.71;61.85
30021;BME280;16861;52.294;7.760;2023-03-03T02:05:08;100618.31;;;4.69;61.55
30021;BME280;16861;52.294;7.760;2023-03-03T02:07:36;100622.69;;;4.67;61.70
30021;BME280;16861;52.294;7.760;2023-03-03T02:12:44;100618.44;;;4.62;62.21
30021;BME280;16861;52.294;7.760;2023-03-03T02:15:26;100620.25;;;4.58;62.52
30021;BME280;16861;52.294;7.760;2023-03-03T02:17:55;100613.31;;;4.59;61.76
30021;BME280;16861;52.294;7.760;2023-03-03T02:23:15;100624.69;;;4.53;62.43
30021;BME280;16861;52.294;7.760;2023-03-03T02:28:30;100629.94;;;4.51;62.07
30021;BME280;16861;52.294;7.760;2023-03-03T02:30:58;100628.19;;;4.52;61.96
30021;BME280;16861;52.294;7.760;2023-03-03T02:33:25;100620.41;;;4.50;61.78
30021;BME280;16861;52.294;7.760;2023-03-03T02:35:52;100621.25;;;4.49;61.79
30021;BME280;16861;52.294;7.760;2023-03-03T02:44:05;100621.34;;;4.46;61.99
30021;BME280;16861;52.294;7.760;2023-03-03T02:46:35;100620.50;;;4.44;62.25
30021;BME280;16861;52.294;7.760;2023-03-03T02:49:04;100625.78;;;4.41;62.13
30021;BME280;16861;52.294;7.760;2023-03-03T02:51:31;100623.19;;;4.39;62.05
30021;BME280;16861;52.294;7.760;2023-03-03T02:53:58;100619.75;;;4.36;62.42
30021;BME280;16861;52.294;7.760;2023-03-03T02:56:24;100621.53;;;4.35;62.33
30021;BME280;16861;52.294;7.760;2023-03-03T02:58:50;100618.03;;;4.35;62.64
30021;BME280;16861;52.294;7.760;2023-03-03T03:01:17;100619.78;;;4.34;62.31
30021;BME280;16861;52.294;7.760;2023-03-03T03:03:44;100617.19;;;4.34;62.51
30021;BME280;16861;52.294;7.760;2023-03-03T03:06:10;100613.72;;;4.34;62.43
30021;BME280;16861;52.294;7.760;2023-03-03T03:08:37;100612.84;;;4.33;62.50
30021;BME280;16861;52.294;7.760;2023-03-03T03:11:04;100617.22;;;4.33;62.16
30021;BME280;16861;52.294;7.760;2023-03-03T03:13:33;100614.66;;;4.31;62.23
30021;BME280;16861;52.294;7.760;2023-03-03T03:16:00;100612.94;;;4.30;62.71
30021;BME280;16861;52.294;7.760;2023-03-03T03:18:27;100618.16;;;4.30;62.97
30021;BME280;16861;52.294;7.760;2023-03-03T03:20:53;100612.03;;;4.31;62.71
30021;BME280;16861;52.294;7.760;2023-03-03T03:23:20;100618.94;;;4.34;62.79
30021;BME280;16861;52.294;7.760;2023-03-03T03:25:49;100615.44;;;4.35;62.67
30021;BME280;16861;52.294;7.760;2023-03-03T03:28:16;100621.50;;;4.37;62.97
30021;BME280;16861;52.294;7.760;2023-03-03T03:30:44;100621.50;;;4.37;62.87
30021;BME280;16861;52.294;7.760;2023-03-03T03:33:11;100619.72;;;4.39;62.82
30021;BME280;16861;52.294;7.760;2023-03-03T03:35:37;100631.88;;;4.38;63.00
30021;BME280;16861;52.294;7.760;2023-03-03T03:38:05;100632.78;;;4.37;62.68
30021;BME280;16861;52.294;7.760;2023-03-03T03:40:32;100626.72;;;4.37;62.97
30021;BME280;16861;52.294;7.760;2023-03-03T03:42:58;100626.72;;;4.37;62.75
30021;BME280;16861;52.294;7.760;2023-03-03T03:45:24;100623.22;;;4.38;62.67
30021;BME280;16861;52.294;7.760;2023-03-03T03:47:51;100629.31;;;4.37;62.47
30021;BME280;16861;52.294;7.760;2023-03-03T03:50:17;100640.59;;;4.37;62.67
30021;BME280;16861;52.294;7.760;2023-03-03T03:52:44;100631.09;;;4.35;62.58
30021;BME280;16861;52.294;7.760;2023-03-03T03:55:10;100632.88;;;4.33;62.35
30021;BME280;16861;52.294;7.760;2023-03-03T03:57:37;100628.56;;;4.30;62.80
30021;BME280;16861;52.294;7.760;2023-03-03T04:00:04;100627.69;;;4.29;62.61
30021;BME280;16861;52.294;7.760;2023-03-03T04:02:31;100628.59;;;4.28;62.68
30021;BME280;16861;52.294;7.760;2023-03-03T04:04:57;100638.13;;;4.29;63.07
30021;BME280;16861;52.294;7.760;2023-03-03T04:07:24;100639.00;;;4.30;62.47
30021;BME280;16861;52.294;7.760;2023-03-03T04:09:50;100639.84;;;4.29;62.83
30021;BME280;16861;52.294;7.760;2023-03-03T04:12:17;100624.19;;;4.30;62.96
30021;BME280;16861;52.294;7.760;2023-03-03T04:14:43;100622.47;;;4.29;62.77
30021;BME280;16861;52.294;7.760;2023-03-03T04:17:17;100614.69;;;4.28;63.27
30021;BME280;16861;52.294;7.760;2023-03-03T04:19:44;100624.19;;;4.30;62.82
30021;BME280;16861;52.294;7.760;2023-03-03T04:22:11;100625.06;;;4.31;62.73
30021;BME280;16861;52.294;7.760;2023-03-03T04:24:41;100623.31;;;4.32;63.28
30021;BME280;16861;52.294;7.760;2023-03-03T04:27:07;100622.44;;;4.33;63.02
30021;BME280;16861;52.294;7.760;2023-03-03T04:29:34;100622.38;;;4.34;63.04
30021;BME280;16861;52.294;7.760;2023-03-03T04:32:01;100627.59;;;4.36;62.94
30021;BME280;16861;52.294;7.760;2023-03-03T04:34:27;100619.75;;;4.36;62.83
30021;BME280;16861;52.294;7.760;2023-03-03T04:36:54;100627.59;;;4.36;62.86
30021;BME280;16861;52.294;7.760;2023-03-03T04:39:20;100638.00;;;4.36;62.82
30021;BME280;16861;52.294;7.760;2023-03-03T04:41:47;100627.59;;;4.34;62.67
30021;BME280;16861;52.294;7.760;2023-03-03T04:44:13;100629.38;;;4.34;62.58
30021;BME280;16861;52.294;7.760;2023-03-03T04:46:39;100637.19;;;4.34;62.89
30021;BME280;16861;52.294;7.760;2023-03-03T04:49:06;100634.59;;;4.34;62.74
30021;BME280;16861;52.294;7.760;2023-03-03T04:51:36;100633.72;;;4.33;62.96
30021;BME280;16861;52.294;7.760;2023-03-03T04:54:03;100638.91;;;4.33;62.83
30021;BME280;16861;52.294;7.760;2023-03-03T04:56:30;100640.63;;;4.34;62.94
30021;BME280;16861;52.294;7.760;2023-03-03T04:58:57;100638.91;;;4.35;62.74
30021;BME280;16861;52.294;7.760;2023-03-03T05:01:23;100641.50;;;4.35;63.12
30021;BME280;16861;52.294;7.760;2023-03-03T05:03:50;100646.69;;;4.36;62.90
30021;BME280;16861;52.294;7.760;2023-03-03T05:06:16;100640.63;;;4.36;62.94
30021;BME280;16861;52.294;7.760;2023-03-03T05:08:44;100635.41;;;4.36;63.00
30021;BME280;16861;52.294;7.760;2023-03-03T05:11:11;100644.97;;;4.37;62.88
30021;BME280;16861;52.294;7.760;2023-03-03T05:13:39;100646.69;;;4.36;62.81
30021;BME280;16861;52.294;7.760;2023-03-03T05:16:06;100653.63;;;4.37;62.87
30021;BME280;16861;52.294;7.760;2023-03-03T05:18:32;100652.78;;;4.37;62.95
30021;BME280;16861;52.294;7.760;2023-03-03T05:21:00;100654.50;;;4.38;63.01
30021;BME280;16861;52.294;7.760;2023-03-03T05:23:26;100649.28;;;4.38;62.98
30021;BME280;16861;52.294;7.760;2023-03-03T05:25:53;100648.38;;;4.39;62.99
30021;BME280;16861;52.294;7.760;2023-03-03T05:28:19;100660.53;;;4.40;63.08
30021;BME280;16861;52.294;7.760;2023-03-03T05:30:46;100663.13;;;4.40;62.98
30021;BME280;16861;52.294;7.760;2023-03-03T05:33:14;100652.72;;;4.40;63.05
30021;BME280;16861;52.294;7.760;2023-03-03T05:35:42;100656.19;;;4.40;62.54
30021;BME280;16861;52.294;7.760;2023-03-03T05:38:09;100664.03;;;4.39;62.56
30021;BME280;16861;52.294;7.760;2023-03-03T05:40:36;100661.50;;;4.34;62.50
30021;BME280;16861;52.294;7.760;2023-03-03T05:43:02;100658.94;;;4.33;62.64
30021;BME280;16861;52.294;7.760;2023-03-03T05:45:29;100652.06;;;4.28;62.30
30021;BME280;16861;52.294;7.760;2023-03-03T05:47:55;100653.81;;;4.26;62.42
30021;BME280;16861;52.294;7.760;2023-03-03T05:50:22;100662.50;;;4.25;62.62
30021;BME280;16861;52.294;7.760;2023-03-03T05:52:50;100659.94;;;4.24;62.90
30021;BME280;16861;52.294;7.760;2023-03-03T05:55:17;100662.56;;;4.21;62.71
30021;BME280;16861;52.294;7.760;2023-03-03T05:57:44;100650.44;;;4.20;62.80
30021;BME280;16861;52.294;7.760;2023-03-03T06:00:12;100655.66;;;4.20;62.76
30021;BME280;16861;52.294;7.760;2023-03-03T06:02:39;100652.19;;;4.19;62.97
30021;BME280;16861;52.294;7.760;2023-03-03T06:05:06;100654.81;;;4.19;62.84
30021;BME280;16861;52.294;7.760;2023-03-03T06:07:33;100660.88;;;4.20;62.95
30021;BME280;16861;52.294;7.760;2023-03-03T06:09:59;100662.63;;;4.19;62.93
30021;BME280;16861;52.294;7.760;2023-03-03T06:12:26;100665.22;;;4.19;62.70
30021;BME280;16861;52.294;7.760;2023-03-03T06:14:52;100663.47;;;4.20;62.86
30021;BME280;16861;52.294;7.760;2023-03-03T06:17:19;100662.56;;;4.21;63.12
30021;BME280;16861;52.294;7.760;2023-03-03T06:19:45;100666.94;;;4.20;63.01
30021;BME280;16861;52.294;7.760;2023-03-03T06:22:13;100665.19;;;4.21;62.71
30021;BME280;16861;52.294;7.760;2023-03-03T06:24:39;100665.19;;;4.21;62.60
30021;BME280;16861;52.294;7.760;2023-03-03T06:27:06;100673.06;;;4.19;62.61
30021;BME280;16861;52.294;7.760;2023-03-03T06:29:32;100673.91;;;4.18;63.02
30021;BME280;16861;52.294;7.760;2023-03-03T06:31:59;100676.50;;;4.18;62.86
30021;BME280;16861;52.294;7.760;2023-03-03T06:34:25;100678.25;;;4.19;63.06
30021;BME280;16861;52.294;7.760;2023-03-03T06:36:52;100676.50;;;4.18;63.28
30021;BME280;16861;52.294;7.760;2023-03-03T06:39:18;100688.63;;;4.21;63.21
30021;BME280;16861;52.294;7.760;2023-03-03T06:41:45;100680.78;;;4.22;62.92
30021;BME280;16861;52.294;7.760;2023-03-03T06:44:11;100682.50;;;4.23;63.07
30021;BME280;16861;52.294;7.760;2023-03-03T06:46:38;100683.38;;;4.25;63.27
30021;BME280;16861;52.294;7.760;2023-03-03T06:49:04;100690.28;;;4.28;63.34
30021;BME280;16861;52.294;7.760;2023-03-03T06:51:36;100685.94;;;4.28;63.19
30021;BME280;16861;52.294;7.760;2023-03-03T06:54:27;100691.97;;;4.29;63.72
30021;BME280;16861;52.294;7.760;2023-03-03T06:56:58;100691.91;;;4.35;62.97
30021;BME280;16861;52.294;7.760;2023-03-03T06:59:26;100698.84;;;4.36;63.31
30021;BME280;16861;52.294;7.760;2023-03-03T07:01:53;100689.28;;;4.37;62.98
30021;BME280;16861;52.294;7.760;2023-03-03T07:04:29;100699.66;;;4.38;63.37
30021;BME280;16861;52.294;7.760;2023-03-03T07:06:57;100708.31;;;4.42;63.12
30021;BME280;16861;52.294;7.760;2023-03-03T07:09:27;100702.19;;;4.43;63.09
30021;BME280;16861;52.294;7.760;2023-03-03T07:12:04;100710.91;;;4.42;63.32
30021;BME280;16861;52.294;7.760;2023-03-03T07:14:32;100715.19;;;4.48;63.42
30021;BME280;16861;52.294;7.760;2023-03-03T07:17:01;100720.31;;;4.51;63.42
30021;BME280;16861;52.294;7.760;2023-03-03T07:19:33;100729.88;;;4.52;63.20
30021;BME280;16861;52.294;7.760;2023-03-03T07:22:14;100735.09;;;4.52;63.48
30021;BME280;16861;52.294;7.760;2023-03-03T07:24:42;100729.81;;;4.55;63.21
30021;BME280;16861;52.294;7.760;2023-03-03T07:27:24;100741.13;;;4.54;63.33
30021;BME280;16861;52.294;7.760;2023-03-03T07:29:52;100735.88;;;4.59;63.18
30021;BME280;16861;52.294;7.760;2023-03-03T07:32:50;100735.00;;;4.56;63.17
30021;BME280;16861;52.294;7.760;2023-03-03T07:35:36;100743.72;;;4.55;63.33
30021;BME280;16861;52.294;7.760;2023-03-03T07:38:36;100741.13;;;4.55;63.11
30021;BME280;16861;52.294;7.760;2023-03-03T07:41:14;100744.53;;;4.57;63.51
30021;BME280;16861;52.294;7.760;2023-03-03T07:43:47;100740.22;;;4.58;63.42
30021;BME280;16861;52.294;7.760;2023-03-03T07:49:00;100748.00;;;4.61;63.25
30021;BME280;16861;52.294;7.760;2023-03-03T07:51:38;100753.19;;;4.61;63.67
30021;BME280;16861;52.294;7.760;2023-03-03T07:56:40;100755.69;;;4.69;63.45
30021;BME280;16861;52.294;7.760;2023-03-03T07:59:25;100759.09;;;4.71;63.43
30021;BME280;16861;52.294;7.760;2023-03-03T08:01:55;100751.25;;;4.74;63.46
30021;BME280;16861;52.294;7.760;2023-03-03T08:04:43;100755.63;;;4.74;63.45
30021;BME280;16861;52.294;7.760;2023-03-03T08:07:17;100762.44;;;4.81;63.41
30021;BME280;16861;52.294;7.760;2023-03-03T08:09:50;100753.75;;;4.80;63.74
30021;BME280;16861;52.294;7.760;2023-03-03T08:15:21;100751.94;;;4.86;63.83
30021;BME280;16861;52.294;7.760;2023-03-03T08:17:46;100754.44;;;4.90;63.96
30021;BME280;16861;52.294;7.760;2023-03-03T08:23:01;100757.75;;;5.00;63.94
30021;BME280;16861;52.294;7.760;2023-03-03T08:25:27;100762.03;;;5.04;63.83
30021;BME280;16861;52.294;7.760;2023-03-03T08:27:54;100761.13;;;5.07;63.92
30021;BME280;16861;52.294;7.760;2023-03-03T08:30:21;100764.53;;;5.11;63.87
30021;BME280;16861;52.294;7.760;2023-03-03T08:32:47;100767.94;;;5.16;64.13
30021;BME280;16861;52.294;7.760;2023-03-03T08:35:14;100756.47;;;5.23;63.74
30021;BME280;16861;52.294;7.760;2023-03-03T08:37:40;100765.97;;;5.27;64.09
30021;BME280;16861;52.294;7.760;2023-03-03T08:40:07;100762.38;;;5.33;63.79
30021;BME280;16861;52.294;7.760;2023-03-03T08:42:33;100756.25;;;5.35;63.65
30021;BME280;16861;52.294;7.760;2023-03-03T08:45:00;100751.00;;;5.37;63.59
30021;BME280;16861;52.294;7.760;2023-03-03T08:47:26;100753.56;;;5.40;63.45
30021;BME280;16861;52.294;7.760;2023-03-03T08:49:53;100751.75;;;5.44;63.36
30021;BME280;16861;52.294;7.760;2023-03-03T08:52:19;100756.00;;;5.48;63.39
30021;BME280;16861;52.294;7.760;2023-03-03T08:54:46;100759.47;;;5.50;63.03
30021;BME280;16861;52.294;7.760;2023-03-03T08:57:12;100761.19;;;5.51;63.27
30021;BME280;16861;52.294;7.760;2023-03-03T08:59:39;100757.66;;;5.54;63.31
30021;BME280;16861;52.294;7.760;2023-03-03T09:02:06;100759.34;;;5.56;63.63
30021;BME280;16861;52.294;7.760;2023-03-03T09:04:33;100765.34;;;5.60;63.44
30021;BME280;16861;52.294;7.760;2023-03-03T09:07:00;100768.81;;;5.62;63.32
30021;BME280;16861;52.294;7.760;2023-03-03T09:09:26;100765.28;;;5.65;62.90
30021;BME280;16861;52.294;7.760;2023-03-03T09:11:57;100763.53;;;5.65;62.92
30021;BME280;16861;52.294;7.760;2023-03-03T09:14:27;100773.06;;;5.68;62.88
30021;BME280;16861;52.294;7.760;2023-03-03T09:16:55;100776.50;;;5.68;63.21
30021;BME280;16861;52.294;7.760;2023-03-03T09:19:26;100767.78;;;5.69;62.83
30021;BME280;16861;52.294;7.760;2023-03-03T09:21:57;100772.97;;;5.71;62.93
30021;BME280;16861;52.294;7.760;2023-03-03T09:24:31;100769.53;;;5.70;62.78
30021;BME280;16861;52.294;7.760;2023-03-03T09:27:01;100767.72;;;5.72;62.99
30021;BME280;16861;52.294;7.760;2023-03-03T09:29:29;100786.88;;;5.73;63.13
30021;BME280;16861;52.294;7.760;2023-03-03T09:31:57;100777.25;;;5.75;62.97
30021;BME280;16861;52.294;7.760;2023-03-03T09:37:29;100792.91;;;5.75;63.11
30021;BME280;16861;52.294;7.760;2023-03-03T09:39:59;100791.03;;;5.82;62.93
30021;BME280;16861;52.294;7.760;2023-03-03T09:45:39;100803.25;;;5.81;62.63
30021;BME280;16861;52.294;7.760;2023-03-03T09:48:33;100800.63;;;5.83;62.84
30021;BME280;16861;52.294;7.760;2023-03-03T09:54:16;100802.22;;;5.89;62.89
30021;BME280;16861;52.294;7.760;2023-03-03T09:56:53;100793.44;;;5.93;63.13
30021;BME280;16861;52.294;7.760;2023-03-03T10:02:06;100802.91;;;5.98;62.86
30021;BME280;16861;52.294;7.760;2023-03-03T10:13:19;100812.25;;;6.10;62.61
30021;BME280;16861;52.294;7.760;2023-03-03T10:18:43;100809.56;;;6.15;62.33
30021;BME280;16861;52.294;7.760;2023-03-03T10:21:29;100806.06;;;6.16;62.61
30021;BME280;16861;52.294;7.760;2023-03-03T10:24:20;100803.44;;;6.16;62.49
30021;BME280;16861;52.294;7.760;2023-03-03T10:27:29;100803.41;;;6.18;62.42
30021;BME280;16861;52.294;7.760;2023-03-03T10:33:34;100803.19;;;6.27;62.42
30021;BME280;16861;52.294;7.760;2023-03-03T10:38:59;100808.31;;;6.33;62.96
30021;BME280;16861;52.294;7.760;2023-03-03T10:47:23;100812.50;;;6.41;62.75
30021;BME280;16861;52.294;7.760;2023-03-03T11:01:17;100804.19;;;6.61;62.31
30021;BME280;16861;52.294;7.760;2023-03-03T11:03:55;100807.50;;;6.68;62.46
30021;BME280;16861;52.294;7.760;2023-03-03T11:07:08;100810.09;;;6.69;61.99
30021;BME280;16861;52.294;7.760;2023-03-03T11:21:02;100800.84;;;6.92;62.24
30021;BME280;16861;52.294;7.760;2023-03-03T11:23:57;100803.31;;;6.97;62.11
30021;BME280;16861;52.294;7.760;2023-03-03T11:38:46;100797.19;;;7.33;61.77
30021;BME280;16861;52.294;7.760;2023-03-03T11:40:52;100795.25;;;7.39;61.97
30021;BME280;16861;52.294;7.760;2023-03-03T11:43:42;100795.22;;;7.41;61.62
30021;BME280;16861;52.294;7.760;2023-03-03T11:46:16;100793.34;;;7.46;61.60
30021;BME280;16861;52.294;7.760;2023-03-03T11:48:52;100784.53;;;7.49;62.04
30021;BME280;16861;52.294;7.760;2023-03-03T11:54:00;100791.28;;;7.58;61.81
30021;BME280;16861;52.294;7.760;2023-03-03T11:56:39;100782.38;;;7.63;61.58
30021;BME280;16861;52.294;7.760;2023-03-03T12:02:14;100794.16;;;7.80;61.03
30021;BME280;16861;52.294;7.760;2023-03-03T12:04:51;100787.78;;;7.89;60.88
30021;BME280;16861;52.294;7.760;2023-03-03T12:07:33;100782.50;;;7.90;60.39
30021;BME280;16861;52.294;7.760;2023-03-03T12:10:35;100774.53;;;7.93;60.88
30021;BME280;16861;52.294;7.760;2023-03-03T12:18:29;100766.13;;;8.12;60.32
30021;BME280;16861;52.294;7.760;2023-03-03T12:29:26;100766.47;;;8.30;60.84
30021;BME280;16861;52.294;7.760;2023-03-03T12:32:32;100765.56;;;8.31;59.82
30021;BME280;16861;52.294;7.760;2023-03-03T12:35:38;100759.31;;;8.35;59.67
30021;BME280;16861;52.294;7.760;2023-03-03T12:40:45;100769.59;;;8.41;59.81
30021;BME280;16861;52.294;7.760;2023-03-03T12:46:34;100758.88;;;8.49;59.89
30021;BME280;16861;52.294;7.760;2023-03-03T12:48:56;100746.78;;;8.72;63.76
30021;BME280;16861;52.294;7.760;2023-03-03T12:59:30;100739.91;;;11.82;65.54
30021;BME280;16861;52.294;7.760;2023-03-03T13:07:42;100709.09;;;14.87;58.11
30021;BME280;16861;52.294;7.760;2023-03-03T13:10:35;100720.41;;;15.49;54.49
30021;BME280;16861;52.294;7.760;2023-03-03T13:15:39;100710.75;;;16.05;51.13
30021;BME280;16861;52.294;7.760;2023-03-03T13:21:19;100705.28;;;16.48;51.95
30021;BME280;16861;52.294;7.760;2023-03-03T13:34:53;100695.81;;;18.12;46.60
30021;BME280;16861;52.294;7.760;2023-03-03T13:37:29;100685.88;;;18.14;46.47
30021;BME280;16861;52.294;7.760;2023-03-03T13:40:15;100690.91;;;18.05;46.24
30021;BME280;16861;52.294;7.760;2023-03-03T13:45:21;100690.09;;;17.92;45.69
30021;BME280;16861;52.294;7.760;2023-03-03T13:50:50;100678.47;;;17.68;45.07
30021;BME280;16861;52.294;7.760;2023-03-03T13:54:01;100669.78;;;17.53;45.20
30021;BME280;16861;52.294;7.760;2023-03-03T14:08:12;100664.44;;;17.91;46.97
30021;BME280;16861;52.294;7.760;2023-03-03T14:11:13;100651.75;;;18.19;46.79
30021;BME280;16861;52.294;7.760;2023-03-03T14:14:02;100655.84;;;18.47;47.93
30021;BME280;16861;52.294;7.760;2023-03-03T14:19:24;100655.28;;;18.55;43.67
30021;BME280;16861;52.294;7.760;2023-03-03T14:22:01;100651.69;;;18.32;43.22
30021;BME280;16861;52.294;7.760;2023-03-03T14:24:30;100647.28;;;17.95;43.72
30021;BME280;16861;52.294;7.760;2023-03-03T14:26:58;100638.06;;;17.50;43.05
30021;BME280;16861;52.294;7.760;2023-03-03T14:31:57;100643.75;;;16.54;43.91
30021;BME280;16861;52.294;7.760;2023-03-03T14:34:38;100639.47;;;15.98;43.83
30021;BME280;16861;52.294;7.760;2023-03-03T14:37:42;100645.25;;;15.48;44.38
30021;BME280;16861;52.294;7.760;2023-03-03T14:40:21;100638.19;;;15.05;44.56
30021;BME280;16861;52.294;7.760;2023-03-03T14:42:53;100631.25;;;14.73;45.60
30021;BME280;16861;52.294;7.760;2023-03-03T14:45:34;100624.91;;;14.31;45.36
30021;BME280;16861;52.294;7.760;2023-03-03T14:53:36;100633.13;;;13.47;47.29
30021;BME280;16861;52.294;7.760;2023-03-03T14:59:16;100626.06;;;12.98;47.39
30021;BME280;16861;52.294;7.760;2023-03-03T15:01:44;100628.38;;;12.86;48.46
30021;BME280;16861;52.294;7.760;2023-03-03T15:06:44;100617.72;;;12.54;48.49
30021;BME280;16861;52.294;7.760;2023-03-03T15:09:23;100616.94;;;12.34;48.29
30021;BME280;16861;52.294;7.760;2023-03-03T15:11:52;100615.84;;;12.21;48.85
30021;BME280;16861;52.294;7.760;2023-03-03T15:14:26;100615.69;;;12.06;48.91
30021;BME280;16861;52.294;7.760;2023-03-03T15:16:57;100611.06;;;11.92;49.22
30021;BME280;16861;52.294;7.760;2023-03-03T15:19:46;100618.72;;;11.79;49.17
30021;BME280;16861;52.294;7.760;2023-03-03T15:25:11;100616.41;;;11.54;49.60
30021;BME280;16861;52.294;7.760;2023-03-03T15:31:27;100614.69;;;11.33;50.14
30021;BME280;16861;52.294;7.760;2023-03-03T15:36:50;100604.59;;;11.24;50.60
30021;BME280;16861;52.294;7.760;2023-03-03T15:41:59;100594.66;;;11.10;50.88
30021;BME280;16861;52.294;7.760;2023-03-03T15:47:38;100587.25;;;10.99;50.54
30021;BME280;16861;52.294;7.760;2023-03-03T15:53:01;100587.66;;;10.90;50.88
30021;BME280;16861;52.294;7.760;2023-03-03T15:55:46;100584.53;;;10.81;50.85
30021;BME280;16861;52.294;7.760;2023-03-03T15:58:52;100584.69;;;10.78;51.13
30021;BME280;16861;52.294;7.760;2023-03-03T16:01:26;100591.78;;;10.76;51.15
30021;BME280;16861;52.294;7.760;2023-03-03T16:03:58;100590.28;;;10.71;51.17
30021;BME280;16861;52.294;7.760;2023-03-03T16:09:51;100597.06;;;10.55;50.70
30021;BME280;16861;52.294;7.760;2023-03-03T16:21:01;100598.09;;;10.30;50.75
30021;BME280;16861;52.294;7.760;2023-03-03T16:23:33;100596.53;;;10.26;51.25
30021;BME280;16861;52.294;7.760;2023-03-03T16:29:03;100594.41;;;10.14;50.87
30021;BME280;16861;52.294;7.760;2023-03-03T16:31:56;100596.50;;;10.06;51.05
30021;BME280;16861;52.294;7.760;2023-03-03T16:34:38;100599.25;;;10.02;51.04
30021;BME280;16861;52.294;7.760;2023-03-03T16:37:17;100596.81;;;9.98;51.04
30021;BME280;16861;52.294;7.760;2023-03-03T16:42:32;100594.38;;;9.93;51.54
30021;BME280;16861;52.294;7.760;2023-03-03T16:45:21;100599.06;;;9.85;51.15
30021;BME280;16861;52.294;7.760;2023-03-03T16:53:17;100603.66;;;9.80;52.05
30021;BME280;16861;52.294;7.760;2023-03-03T16:55:52;100605.47;;;9.77;51.66
30021;BME280;16861;52.294;7.760;2023-03-03T17:01:31;100605.75;;;9.71;52.05
30021;BME280;16861;52.294;7.760;2023-03-03T17:04:01;100602.19;;;9.72;52.51
30021;BME280;16861;52.294;7.760;2023-03-03T17:15:31;100606.28;;;9.57;52.94
30021;BME280;16861;52.294;7.760;2023-03-03T17:31:15;100616.31;;;9.47;53.57
30021;BME280;16861;52.294;7.760;2023-03-03T17:37:05;100613.84;;;9.43;52.72
30021;BME280;16861;52.294;7.760;2023-03-03T17:45:06;100623.06;;;9.31;52.38
30021;BME280;16861;52.294;7.760;2023-03-03T17:50:28;100623.28;;;9.24;52.67
30021;BME280;16861;52.294;7.760;2023-03-03T18:01:39;100615.00;;;9.11;52.46